sensor_id;sensor_type;location;lat;lon;timestamp;pressure;altitude;pressure_sealevel;temperature;humidity
17785;BME280;9016;53.582;10.062;2024-01-30T00:00:37;102675.28;;;7.96;70.75
17785;BME280;9016;53.582;10.062;2024-01-30T00:03:05;102678.84;;;7.95;71.08
17785;BME280;9016;53.582;10.062;2024-01-30T00:05:33;102682.44;;;7.93;71.50
17785;BME280;9016;53.582;10.062;2024-01-30T00:08:01;102683.41;;;7.89;71.69
17785;BME280;9016;53.582;10.062;2024-01-30T00:10:29;102685.97;;;7.92;71.28
17785;BME280;9016;53.582;10.062;2024-01-30T00:12:59;102686.09;;;7.86;71.68
17785;BME280;9016;53.582;10.062;2024-01-30T00:15:27;102682.63;;;7.82;72.35
17785;BME280;9016;53.582;10.062;2024-01-30T00:17:55;102692.38;;;7.82;71.75
17785;BME280;9016;53.582;10.062;2024-01-30T00:20:23;102680.91;;;7.78;72.29
17785;BME280;9016;53.582;10.062;2024-01-30T00:22:51;102675.63;;;7.77;72.44
17785;BME280;9016;53.582;10.062;2024-01-30T00:25:19;102673.84;;;7.79;72.79
17785;BME280;9016;53.582;10.062;2024-01-30T00:27:48;102670.41;;;7.74;72.34
17785;BME280;9016;53.582;10.062;2024-01-30T00:30:17;102667.78;;;7.72;72.43
17785;BME280;9016;53.582;10.062;2024-01-30T00:32:46;102669.56;;;7.70;72.36
17785;BME280;9016;53.582;10.062;2024-01-30T00:35:14;102653.63;;;7.72;73.13
17785;BME280;9016;53.582;10.062;2024-01-30T00:37:42;102663.34;;;7.71;72.08
17785;BME280;9016;53.582;10.062;2024-01-30T00:40:10;102659.00;;;7.69;73.00
17785;BME280;9016;53.582;10.062;2024-01-30T00:42:42;102653.75;;;7.64;72.96
17785;BME280;9016;53.582;10.062;2024-01-30T00:45:12;102658.19;;;7.65;73.27
17785;BME280;9016;53.582;10.062;2024-01-30T00:47:42;102669.63;;;7.69;72.39
17785;BME280;9016;53.582;10.062;2024-01-30T00:50:11;102659.13;;;7.61;72.31
17785;BME280;9016;53.582;10.062;2024-01-30T00:52:39;102659.06;;;7.64;72.73
17785;BME280;9016;53.582;10.062;2024-01-30T00:55:08;102651.22;;;7.60;72.65
17785;BME280;9016;53.582;10.062;2024-01-30T00:57:36;102651.22;;;7.60;73.03
17785;BME280;9016;53.582;10.062;2024-01-30T01:00:07;102655.66;;;7.56;72.67
17785;BME280;9016;53.582;10.062;2024-01-30T01:02:36;102652.09;;;7.59;72.11
17785;BME280;9016;53.582;10.062;2024-01-30T01:05:06;102657.41;;;7.59;72.24
17785;BME280;9016;53.582;10.062;2024-01-30T01:07:35;102653.88;;;7.57;72.58
17785;BME280;9016;53.582;10.062;2024-01-30T01:10:04;102653.00;;;7.58;72.92
17785;BME280;9016;53.582;10.062;2024-01-30T01:12:32;102660.03;;;7.59;72.87
17785;BME280;9016;53.582;10.062;2024-01-30T01:15:00;102665.34;;;7.59;72.96
17785;BME280;9016;53.582;10.062;2024-01-30T01:17:29;102664.47;;;7.60;72.37
17785;BME280;9016;53.582;10.062;2024-01-30T01:19:57;102661.81;;;7.60;73.00
17785;BME280;9016;53.582;10.062;2024-01-30T01:22:27;102667.94;;;7.62;72.05
17785;BME280;9016;53.582;10.062;2024-01-30T01:24:55;102671.47;;;7.62;72.47
17785;BME280;9016;53.582;10.062;2024-01-30T01:27:23;102666.34;;;7.53;72.93
17785;BME280;9016;53.582;10.062;2024-01-30T01:29:51;102666.31;;;7.55;73.14
17785;BME280;9016;53.582;10.062;2024-01-30T01:32:20;102672.41;;;7.61;72.72
17785;BME280;9016;53.582;10.062;2024-01-30T01:34:48;102659.13;;;7.61;72.77
17785;BME280;9016;53.582;10.062;2024-01-30T01:37:16;102664.50;;;7.57;72.75
17785;BME280;9016;53.582;10.062;2024-01-30T01:39:46;102654.75;;;7.59;72.46
17785;BME280;9016;53.582;10.062;2024-01-30T01:42:14;102661.81;;;7.60;72.67
17785;BME280;9016;53.582;10.062;2024-01-30T01:44:42;102663.63;;;7.56;71.99
17785;BME280;9016;53.582;10.062;2024-01-30T01:47:10;102658.19;;;7.64;72.53
17785;BME280;9016;53.582;10.062;2024-01-30T01:49:38;102656.47;;;7.61;72.41
17785;BME280;9016;53.582;10.062;2024-01-30T01:52:07;102649.41;;;7.60;72.36
17785;BME280;9016;53.582;10.062;2024-01-30T01:54:35;102650.47;;;7.50;71.96
17785;BME280;9016;53.582;10.062;2024-01-30T01:57:05;102649.53;;;7.54;71.98
17785;BME280;9016;53.582;10.062;2024-01-30T01:59:33;102652.19;;;7.53;72.05
17785;BME280;9016;53.582;10.062;2024-01-30T02:02:02;102652.13;;;7.57;72.33
17785;BME280;9016;53.582;10.062;2024-01-30T02:04:31;102647.66;;;7.59;72.18
17785;BME280;9016;53.582;10.062;2024-01-30T02:06:59;102643.25;;;7.60;71.56
17785;BME280;9016;53.582;10.062;2024-01-30T02:09:28;102636.09;;;7.63;71.71
17785;BME280;9016;53.582;10.062;2024-01-30T02:11:56;102632.53;;;7.64;71.88
17785;BME280;9016;53.582;10.062;2024-01-30T02:14:25;102629.91;;;7.63;71.82
17785;BME280;9016;53.582;10.062;2024-01-30T02:16:57;102623.69;;;7.64;72.41
17785;BME280;9016;53.582;10.062;2024-01-30T02:19:25;102627.19;;;7.66;72.02
17785;BME280;9016;53.582;10.062;2024-01-30T02:21:54;102615.88;;;7.58;71.83
17785;BME280;9016;53.582;10.062;2024-01-30T02:24:22;102614.09;;;7.57;72.25
17785;BME280;9016;53.582;10.062;2024-01-30T02:26:50;102601.66;;;7.60;71.89
17785;BME280;9016;53.582;10.062;2024-01-30T02:29:18;102610.59;;;7.55;72.74
17785;BME280;9016;53.582;10.062;2024-01-30T02:31:46;102603.44;;;7.58;72.60
17785;BME280;9016;53.582;10.062;2024-01-30T02:34:14;102612.28;;;7.59;72.58
17785;BME280;9016;53.582;10.062;2024-01-30T02:36:43;102611.31;;;7.64;72.62
17785;BME280;9016;53.582;10.062;2024-01-30T02:39:12;102601.56;;;7.65;71.91
17785;BME280;9016;53.582;10.062;2024-01-30T02:41:40;102604.16;;;7.68;72.37
17785;BME280;9016;53.582;10.062;2024-01-30T02:44:08;102602.44;;;7.67;71.70
17785;BME280;9016;53.582;10.062;2024-01-30T02:46:37;102599.78;;;7.67;72.17
17785;BME280;9016;53.582;10.062;2024-01-30T02:49:04;102597.94;;;7.70;72.69
17785;BME280;9016;53.582;10.062;2024-01-30T02:51:33;102604.13;;;7.71;71.38
17785;BME280;9016;53.582;10.062;2024-01-30T02:54:01;102596.13;;;7.72;72.24
17785;BME280;9016;53.582;10.062;2024-01-30T02:56:30;102600.59;;;7.70;72.15
17785;BME280;9016;53.582;10.062;2024-01-30T02:58:59;102603.31;;;7.66;72.06
17785;BME280;9016;53.582;10.062;2024-01-30T03:01:27;102589.22;;;7.62;72.24
17785;BME280;9016;53.582;10.062;2024-01-30T03:03:55;102591.00;;;7.62;72.40
17785;BME280;9016;53.582;10.062;2024-01-30T03:06:22;102592.84;;;7.58;72.24
17785;BME280;9016;53.582;10.062;2024-01-30T03:08:51;102590.19;;;7.60;73.17
17785;BME280;9016;53.582;10.062;2024-01-30T03:11:18;102588.44;;;7.57;73.20
17785;BME280;9016;53.582;10.062;2024-01-30T03:13:48;102591.94;;;7.59;72.70
17785;BME280;9016;53.582;10.062;2024-01-30T03:16:16;102588.38;;;7.60;73.09
17785;BME280;9016;53.582;10.062;2024-01-30T03:18:44;102579.59;;;7.57;72.92
17785;BME280;9016;53.582;10.062;2024-01-30T03:21:12;102575.28;;;7.51;73.56
17785;BME280;9016;53.582;10.062;2024-01-30T03:23:40;102583.34;;;7.45;73.34
17785;BME280;9016;53.582;10.062;2024-01-30T03:26:08;102577.13;;;7.48;73.18
17785;BME280;9016;53.582;10.062;2024-01-30T03:28:37;102577.06;;;7.51;72.76
17785;BME280;9016;53.582;10.062;2024-01-30T03:31:07;102569.13;;;7.49;72.96
17785;BME280;9016;53.582;10.062;2024-01-30T03:33:36;102572.75;;;7.47;73.47
17785;BME280;9016;53.582;10.062;2024-01-30T03:36:05;102570.94;;;7.49;73.37
17785;BME280;9016;53.582;10.062;2024-01-30T03:38:33;102579.00;;;7.43;73.60
17785;BME280;9016;53.582;10.062;2024-01-30T03:41:01;102579.91;;;7.40;73.29
17785;BME280;9016;53.582;10.062;2024-01-30T03:43:32;102571.06;;;7.41;73.80
17785;BME280;9016;53.582;10.062;2024-01-30T03:46:01;102573.72;;;7.40;74.01
17785;BME280;9016;53.582;10.062;2024-01-30T03:48:30;102581.66;;;7.43;73.93
17785;BME280;9016;53.582;10.062;2024-01-30T03:50:58;102572.91;;;7.38;73.60
17785;BME280;9016;53.582;10.062;2024-01-30T03:53:26;102564.09;;;7.34;74.02
17785;BME280;9016;53.582;10.062;2024-01-30T03:55:54;102557.09;;;7.32;74.67
17785;BME280;9016;53.582;10.062;2024-01-30T03:58:22;102550.84;;;7.34;74.15
17785;BME280;9016;53.582;10.062;2024-01-30T04:00:51;102546.50;;;7.32;74.45
17785;BME280;9016;53.582;10.062;2024-01-30T04:03:19;102544.72;;;7.31;74.91
17785;BME280;9016;53.582;10.062;2024-01-30T04:05:48;102557.06;;;7.33;74.22
17785;BME280;9016;53.582;10.062;2024-01-30T04:08:16;102546.44;;;7.35;73.81
17785;BME280;9016;53.582;10.062;2024-01-30T04:10:44;102553.50;;;7.36;74.48
17785;BME280;9016;53.582;10.062;2024-01-30T04:13:13;102545.53;;;7.36;74.47
17785;BME280;9016;53.582;10.062;2024-01-30T04:15:41;102551.75;;;7.33;74.82
17785;BME280;9016;53.582;10.062;2024-01-30T04:18:09;102546.50;;;7.32;74.24
17785;BME280;9016;53.582;10.062;2024-01-30T04:20:37;102551.81;;;7.29;75.23
17785;BME280;9016;53.582;10.062;2024-01-30T04:23:07;102558.06;;;7.28;75.58
17785;BME280;9016;53.582;10.062;2024-01-30T04:25:35;102558.16;;;7.22;75.36
17785;BME280;9016;53.582;10.062;2024-01-30T04:28:03;102559.00;;;7.24;75.73
17785;BME280;9016;53.582;10.062;2024-01-30T04:30:31;102565.22;;;7.23;75.30
17785;BME280;9016;53.582;10.062;2024-01-30T04:32:59;102556.38;;;7.22;76.03
17785;BME280;9016;53.582;10.062;2024-01-30T04:35:27;102565.28;;;7.18;76.16
17785;BME280;9016;53.582;10.062;2024-01-30T04:37:55;102560.78;;;7.22;75.71
17785;BME280;9016;53.582;10.062;2024-01-30T04:40:25;102576.53;;;7.32;75.30
17785;BME280;9016;53.582;10.062;2024-01-30T04:42:53;102576.53;;;7.31;75.79
17785;BME280;9016;53.582;10.062;2024-01-30T04:45:21;102574.00;;;7.26;76.42
17785;BME280;9016;53.582;10.062;2024-01-30T04:47:49;102569.66;;;7.21;76.43
17785;BME280;9016;53.582;10.062;2024-01-30T04:50:17;102564.47;;;7.15;76.39
17785;BME280;9016;53.582;10.062;2024-01-30T04:52:45;102567.91;;;7.20;76.34
17785;BME280;9016;53.582;10.062;2024-01-30T04:55:13;102564.41;;;7.19;76.56
17785;BME280;9016;53.582;10.062;2024-01-30T04:57:43;102566.16;;;7.19;76.87
17785;BME280;9016;53.582;10.062;2024-01-30T05:00:12;102566.22;;;7.14;76.92
17785;BME280;9016;53.582;10.062;2024-01-30T05:02:40;102566.22;;;7.14;76.48
17785;BME280;9016;53.582;10.062;2024-01-30T05:05:08;102561.91;;;7.10;76.88
17785;BME280;9016;53.582;10.062;2024-01-30T05:07:38;102570.69;;;7.12;77.09
17785;BME280;9016;53.582;10.062;2024-01-30T05:10:07;102560.22;;;7.06;77.06
17785;BME280;9016;53.582;10.062;2024-01-30T05:12:36;102555.75;;;7.07;77.33
17785;BME280;9016;53.582;10.062;2024-01-30T05:15:06;102561.09;;;7.05;77.41
17785;BME280;9016;53.582;10.062;2024-01-30T05:17:34;102554.06;;;7.04;77.56
17785;BME280;9016;53.582;10.062;2024-01-30T05:20:02;102553.13;;;7.05;77.48
17785;BME280;9016;53.582;10.062;2024-01-30T05:22:31;102556.72;;;7.03;77.77
17785;BME280;9016;53.582;10.062;2024-01-30T05:24:59;102552.28;;;7.05;77.84
17785;BME280;9016;53.582;10.062;2024-01-30T05:27:27;102563.63;;;7.13;77.91
17785;BME280;9016;53.582;10.062;2024-01-30T05:29:55;102567.94;;;7.18;77.51
17785;BME280;9016;53.582;10.062;2024-01-30T05:32:25;102559.09;;;7.18;77.23
17785;BME280;9016;53.582;10.062;2024-01-30T05:34:53;102560.88;;;7.19;77.26
17785;BME280;9016;53.582;10.062;2024-01-30T05:37:21;102553.81;;;7.16;77.18
17785;BME280;9016;53.582;10.062;2024-01-30T05:39:49;102547.69;;;7.16;77.26
17785;BME280;9016;53.582;10.062;2024-01-30T05:42:18;102558.19;;;7.20;76.95
17785;BME280;9016;53.582;10.062;2024-01-30T05:44:46;102549.34;;;7.20;77.41
17785;BME280;9016;53.582;10.062;2024-01-30T05:47:14;102548.50;;;7.19;77.11
17785;BME280;9016;53.582;10.062;2024-01-30T05:49:43;102538.78;;;7.18;77.42
17785;BME280;9016;53.582;10.062;2024-01-30T05:52:11;102541.38;;;7.20;77.68
17785;BME280;9016;53.582;10.062;2024-01-30T05:54:39;102535.25;;;7.19;77.13
17785;BME280;9016;53.582;10.062;2024-01-30T05:57:08;102538.84;;;7.15;77.20
17785;BME280;9016;53.582;10.062;2024-01-30T05:59:36;102538.88;;;7.12;78.06
17785;BME280;9016;53.582;10.062;2024-01-30T06:02:07;102533.53;;;7.15;77.81
17785;BME280;9016;53.582;10.062;2024-01-30T06:04:35;102534.44;;;7.13;77.63
17785;BME280;9016;53.582;10.062;2024-01-30T06:07:05;102537.09;;;7.13;78.04
17785;BME280;9016;53.582;10.062;2024-01-30T06:09:34;102534.44;;;7.13;77.64
17785;BME280;9016;53.582;10.062;2024-01-30T06:12:03;102531.91;;;7.07;78.41
17785;BME280;9016;53.582;10.062;2024-01-30T06:14:31;102538.03;;;7.12;78.58
17785;BME280;9016;53.582;10.062;2024-01-30T06:17:00;102526.59;;;7.07;78.50
17785;BME280;9016;53.582;10.062;2024-01-30T06:19:28;102522.28;;;7.03;78.99
17785;BME280;9016;53.582;10.062;2024-01-30T06:21:56;102511.53;;;7.10;78.84
17785;BME280;9016;53.582;10.062;2024-01-30T06:24:26;102525.66;;;7.11;78.71
17785;BME280;9016;53.582;10.062;2024-01-30T06:26:54;102510.56;;;7.14;78.96
17785;BME280;9016;53.582;10.062;2024-01-30T06:29:22;102507.78;;;7.22;78.94
17785;BME280;9016;53.582;10.062;2024-01-30T06:31:51;102506.00;;;7.22;78.37
17785;BME280;9016;53.582;10.062;2024-01-30T06:34:19;102495.41;;;7.22;78.25
17785;BME280;9016;53.582;10.062;2024-01-30T06:36:47;102508.53;;;7.30;78.58
17785;BME280;9016;53.582;10.062;2024-01-30T06:39:15;102503.28;;;7.27;78.88
17785;BME280;9016;53.582;10.062;2024-01-30T06:41:45;102513.84;;;7.28;78.27
17785;BME280;9016;53.582;10.062;2024-01-30T06:44:13;102510.28;;;7.29;78.31
17785;BME280;9016;53.582;10.062;2024-01-30T06:46:41;102497.84;;;7.33;78.89
17785;BME280;9016;53.582;10.062;2024-01-30T06:49:09;102508.34;;;7.39;77.95
17785;BME280;9016;53.582;10.062;2024-01-30T06:51:37;102502.09;;;7.43;78.11
17785;BME280;9016;53.582;10.062;2024-01-30T06:54:05;102503.75;;;7.48;78.50
17785;BME280;9016;53.582;10.062;2024-01-30T06:56:33;102506.31;;;7.51;77.87
17785;BME280;9016;53.582;10.062;2024-01-30T06:59:03;102511.63;;;7.51;77.57
17785;BME280;9016;53.582;10.062;2024-01-30T07:01:31;102507.28;;;7.49;77.86
17785;BME280;9016;53.582;10.062;2024-01-30T07:04:00;102502.78;;;7.51;78.01
17785;BME280;9016;53.582;10.062;2024-01-30T07:06:28;102509.94;;;7.47;78.08
17785;BME280;9016;53.582;10.062;2024-01-30T07:08:56;102499.47;;;7.41;78.31
17785;BME280;9016;53.582;10.062;2024-01-30T07:11:24;102504.00;;;7.35;78.44
17785;BME280;9016;53.582;10.062;2024-01-30T07:13:53;102498.75;;;7.32;78.69
17785;BME280;9016;53.582;10.062;2024-01-30T07:16:23;102510.13;;;7.38;78.82
17785;BME280;9016;53.582;10.062;2024-01-30T07:18:51;102506.63;;;7.38;78.88
17785;BME280;9016;53.582;10.062;2024-01-30T07:21:19;102499.59;;;7.34;78.57
17785;BME280;9016;53.582;10.062;2024-01-30T07:23:48;102510.22;;;7.34;78.90
17785;BME280;9016;53.582;10.062;2024-01-30T07:26:16;102509.19;;;7.41;78.83
17785;BME280;9016;53.582;10.062;2024-01-30T07:28:44;102503.81;;;7.44;78.63
17785;BME280;9016;53.582;10.062;2024-01-30T07:31:12;102501.16;;;7.44;78.96
17785;BME280;9016;53.582;10.062;2024-01-30T07:33:42;102495.97;;;7.39;79.07
17785;BME280;9016;53.582;10.062;2024-01-30T07:36:10;102491.50;;;7.41;79.42
17785;BME280;9016;53.582;10.062;2024-01-30T07:38:39;102499.41;;;7.44;78.82
17785;BME280;9016;53.582;10.062;2024-01-30T07:41:07;102496.75;;;7.44;78.87
17785;BME280;9016;53.582;10.062;2024-01-30T07:43:35;102499.47;;;7.40;78.90
17785;BME280;9016;53.582;10.062;2024-01-30T07:46:03;102501.97;;;7.49;78.76
17785;BME280;9016;53.582;10.062;2024-01-30T07:48:33;102497.56;;;7.48;78.67
17785;BME280;9016;53.582;10.062;2024-01-30T07:51:03;102498.22;;;7.59;78.79
17785;BME280;9016;53.582;10.062;2024-01-30T07:53:31;102502.63;;;7.60;78.76
17785;BME280;9016;53.582;10.062;2024-01-30T07:55:59;102510.53;;;7.63;78.23
17785;BME280;9016;53.582;10.062;2024-01-30T07:58:27;102499.75;;;7.70;78.18
17785;BME280;9016;53.582;10.062;2024-01-30T08:00:55;102504.97;;;7.75;77.72
17785;BME280;9016;53.582;10.062;2024-01-30T08:03:25;102506.75;;;7.73;78.63
17785;BME280;9016;53.582;10.062;2024-01-30T08:05:53;102504.97;;;7.75;77.85
17785;BME280;9016;53.582;10.062;2024-01-30T08:08:23;102502.19;;;7.81;78.17
17785;BME280;9016;53.582;10.062;2024-01-30T08:10:52;102491.59;;;7.79;78.00
17785;BME280;9016;53.582;10.062;2024-01-30T08:13:20;102496.00;;;7.80;78.14
17785;BME280;9016;53.582;10.062;2024-01-30T08:15:48;102492.44;;;7.81;78.04
17785;BME280;9016;53.582;10.062;2024-01-30T08:18:16;102493.34;;;7.82;78.52
17785;BME280;9016;53.582;10.062;2024-01-30T08:20:44;102481.56;;;7.93;77.61
17785;BME280;9016;53.582;10.062;2024-01-30T08:23:12;102486.66;;;8.04;77.07
17785;BME280;9016;53.582;10.062;2024-01-30T08:25:42;102495.50;;;8.03;77.02
17785;BME280;9016;53.582;10.062;2024-01-30T08:28:10;102504.44;;;7.99;77.96
17785;BME280;9016;53.582;10.062;2024-01-30T08:30:38;102486.50;;;8.10;78.54
17785;BME280;9016;53.582;10.062;2024-01-30T08:33:06;102490.75;;;8.17;77.26
17785;BME280;9016;53.582;10.062;2024-01-30T08:35:34;102485.22;;;8.29;77.65
17785;BME280;9016;53.582;10.062;2024-01-30T08:38:03;102489.56;;;8.33;76.59
17785;BME280;9016;53.582;10.062;2024-01-30T08:40:31;102483.38;;;8.33;76.96
17785;BME280;9016;53.582;10.062;2024-01-30T08:43:01;102475.97;;;8.45;76.92
17785;BME280;9016;53.582;10.062;2024-01-30T08:45:29;102474.91;;;8.52;76.79
17785;BME280;9016;53.582;10.062;2024-01-30T08:47:57;102478.41;;;8.54;76.15
17785;BME280;9016;53.582;10.062;2024-01-30T08:50:25;102478.22;;;8.62;76.70
17785;BME280;9016;53.582;10.062;2024-01-30T08:52:53;102464.09;;;8.61;76.72
17785;BME280;9016;53.582;10.062;2024-01-30T08:55:22;102475.50;;;8.65;76.05
17785;BME280;9016;53.582;10.062;2024-01-30T08:57:50;102454.16;;;8.68;76.93
17785;BME280;9016;53.582;10.062;2024-01-30T09:00:20;102449.59;;;8.73;76.26
17785;BME280;9016;53.582;10.062;2024-01-30T09:02:48;102445.81;;;8.83;76.39
17785;BME280;9016;53.582;10.062;2024-01-30T09:05:16;102426.28;;;8.84;76.81
17785;BME280;9016;53.582;10.062;2024-01-30T09:07:44;102432.19;;;8.95;76.26
17785;BME280;9016;53.582;10.062;2024-01-30T09:10:13;102438.13;;;9.05;76.15
17785;BME280;9016;53.582;10.062;2024-01-30T09:12:44;102436.22;;;9.10;76.42
17785;BME280;9016;53.582;10.062;2024-01-30T09:15:13;102433.59;;;9.08;75.76
17785;BME280;9016;53.582;10.062;2024-01-30T09:17:42;102431.72;;;9.12;75.66
17785;BME280;9016;53.582;10.062;2024-01-30T09:20:11;102446.44;;;9.25;76.32
17785;BME280;9016;53.582;10.062;2024-01-30T09:22:39;102448.94;;;9.31;74.72
17785;BME280;9016;53.582;10.062;2024-01-30T09:25:07;102446.28;;;9.31;75.59
17785;BME280;9016;53.582;10.062;2024-01-30T09:27:35;102451.50;;;9.34;75.62
17785;BME280;9016;53.582;10.062;2024-01-30T09:30:04;102456.34;;;9.50;74.97
17785;BME280;9016;53.582;10.062;2024-01-30T09:32:33;102465.00;;;9.58;74.40
17785;BME280;9016;53.582;10.062;2024-01-30T09:35:03;102464.78;;;9.66;74.04
17785;BME280;9016;53.582;10.062;2024-01-30T09:37:31;102471.09;;;9.62;73.66
17785;BME280;9016;53.582;10.062;2024-01-30T09:39:59;102471.97;;;9.62;73.90
17785;BME280;9016;53.582;10.062;2024-01-30T09:42:31;102475.69;;;9.57;73.59
17785;BME280;9016;53.582;10.062;2024-01-30T09:45:01;102476.78;;;9.50;73.89
17785;BME280;9016;53.582;10.062;2024-01-30T09:47:31;102477.56;;;9.53;73.55
17785;BME280;9016;53.582;10.062;2024-01-30T09:50:00;102469.38;;;9.59;73.74
17785;BME280;9016;53.582;10.062;2024-01-30T09:52:31;102469.16;;;9.67;73.51
17785;BME280;9016;53.582;10.062;2024-01-30T09:55:00;102466.44;;;9.68;73.53
17785;BME280;9016;53.582;10.062;2024-01-30T09:57:29;102454.75;;;9.74;72.95
17785;BME280;9016;53.582;10.062;2024-01-30T09:59:57;102461.50;;;9.85;73.33
17785;BME280;9016;53.582;10.062;2024-01-30T10:02:25;102457.13;;;9.84;73.00
17785;BME280;9016;53.582;10.062;2024-01-30T10:04:53;102453.34;;;9.91;72.77
17785;BME280;9016;53.582;10.062;2024-01-30T10:07:22;102446.00;;;9.99;72.90
17785;BME280;9016;53.582;10.062;2024-01-30T10:09:52;102436.09;;;10.05;72.36
17785;BME280;9016;53.582;10.062;2024-01-30T10:12:22;102440.28;;;10.13;72.63
17785;BME280;9016;53.582;10.062;2024-01-30T10:14:50;102426.72;;;10.21;72.43
17785;BME280;9016;53.582;10.062;2024-01-30T10:17:18;102430.25;;;10.21;72.12
17785;BME280;9016;53.582;10.062;2024-01-30T10:19:59;102429.13;;;10.28;72.00
17785;BME280;9016;53.582;10.062;2024-01-30T10:22:28;102428.84;;;10.37;71.67
17785;BME280;9016;53.582;10.062;2024-01-30T10:24:58;102439.06;;;10.51;71.91
17785;BME280;9016;53.582;10.062;2024-01-30T10:27:32;102431.94;;;10.51;71.50
17785;BME280;9016;53.582;10.062;2024-01-30T10:30:00;102436.03;;;10.61;71.40
17785;BME280;9016;53.582;10.062;2024-01-30T10:32:31;102441.00;;;10.72;71.13
17785;BME280;9016;53.582;10.062;2024-01-30T10:34:59;102428.78;;;10.65;71.02
17785;BME280;9016;53.582;10.062;2024-01-30T10:37:29;102421.69;;;10.65;70.91
17785;BME280;9016;53.582;10.062;2024-01-30T10:40:03;102419.00;;;10.65;70.63
17785;BME280;9016;53.582;10.062;2024-01-30T10:42:32;102426.75;;;10.73;70.57
17785;BME280;9016;53.582;10.062;2024-01-30T10:45:13;102425.66;;;10.78;70.91
17785;BME280;9016;53.582;10.062;2024-01-30T10:47:46;102422.75;;;10.86;71.02
17785;BME280;9016;53.582;10.062;2024-01-30T10:50:14;102419.88;;;10.66;71.40
17785;BME280;9016;53.582;10.062;2024-01-30T10:52:43;102421.16;;;10.80;70.70
17785;BME280;9016;53.582;10.062;2024-01-30T10:55:13;102417.56;;;10.81;70.76
17785;BME280;9016;53.582;10.062;2024-01-30T10:57:43;102419.34;;;10.81;70.64
17785;BME280;9016;53.582;10.062;2024-01-30T11:00:13;102422.47;;;10.93;70.70
17785;BME280;9016;53.582;10.062;2024-01-30T11:02:44;102418.72;;;10.99;71.03
17785;BME280;9016;53.582;10.062;2024-01-30T11:05:13;102403.91;;;10.90;70.72
17785;BME280;9016;53.582;10.062;2024-01-30T11:07:42;102409.91;;;10.97;70.65
17785;BME280;9016;53.582;10.062;2024-01-30T11:10:13;102414.16;;;11.03;70.58
17785;BME280;9016;53.582;10.062;2024-01-30T11:12:42;102410.66;;;11.01;71.34
17785;BME280;9016;53.582;10.062;2024-01-30T11:15:14;102414.56;;;11.15;70.51
17785;BME280;9016;53.582;10.062;2024-01-30T11:17:49;102409.66;;;11.28;70.05
17785;BME280;9016;53.582;10.062;2024-01-30T11:20:20;102415.53;;;11.37;69.30
17785;BME280;9016;53.582;10.062;2024-01-30T11:22:51;102410.97;;;11.41;69.34
17785;BME280;9016;53.582;10.062;2024-01-30T11:25:21;102411.84;;;11.41;69.71
17785;BME280;9016;53.582;10.062;2024-01-30T11:27:51;102397.19;;;11.51;69.53
17785;BME280;9016;53.582;10.062;2024-01-30T11:30:24;102399.94;;;11.50;69.05
17785;BME280;9016;53.582;10.062;2024-01-30T11:33:00;102407.72;;;11.56;68.74
17785;BME280;9016;53.582;10.062;2024-01-30T11:35:31;102409.56;;;11.54;69.28
17785;BME280;9016;53.582;10.062;2024-01-30T11:38:00;102404.00;;;11.60;69.64
17785;BME280;9016;53.582;10.062;2024-01-30T11:40:31;102399.97;;;11.73;69.45
17785;BME280;9016;53.582;10.062;2024-01-30T11:43:01;102390.59;;;11.84;68.72
17785;BME280;9016;53.582;10.062;2024-01-30T11:45:32;102394.81;;;11.90;68.58
17785;BME280;9016;53.582;10.062;2024-01-30T11:48:00;102386.63;;;11.73;68.85
17785;BME280;9016;53.582;10.062;2024-01-30T11:50:31;102390.88;;;11.77;69.28
17785;BME280;9016;53.582;10.062;2024-01-30T11:52:59;102387.09;;;11.82;68.89
17785;BME280;9016;53.582;10.062;2024-01-30T11:55:29;102386.38;;;11.79;69.12
17785;BME280;9016;53.582;10.062;2024-01-30T11:58:02;102398.09;;;11.75;68.88
17785;BME280;9016;53.582;10.062;2024-01-30T12:00:31;102390.84;;;11.78;69.05
17785;BME280;9016;53.582;10.062;2024-01-30T12:03:01;102394.06;;;11.86;69.32
17785;BME280;9016;53.582;10.062;2024-01-30T12:05:30;102385.25;;;11.84;69.17
17785;BME280;9016;53.582;10.062;2024-01-30T12:07:59;102383.41;;;11.86;69.50
17785;BME280;9016;53.582;10.062;2024-01-30T12:10:28;102372.31;;;11.74;69.77
17785;BME280;9016;53.582;10.062;2024-01-30T12:12:57;102388.06;;;11.81;69.51
17785;BME280;9016;53.582;10.062;2024-01-30T12:15:27;102380.28;;;11.97;69.43
17785;BME280;9016;53.582;10.062;2024-01-30T12:18:04;102373.53;;;11.88;69.39
17785;BME280;9016;53.582;10.062;2024-01-30T12:20:34;102372.97;;;12.02;69.45
17785;BME280;9016;53.582;10.062;2024-01-30T12:23:03;102367.88;;;11.96;69.51
17785;BME280;9016;53.582;10.062;2024-01-30T12:25:31;102370.41;;;11.99;69.51
17785;BME280;9016;53.582;10.062;2024-01-30T12:28:00;102377.22;;;12.08;69.60
17785;BME280;9016;53.582;10.062;2024-01-30T12:30:30;102372.41;;;12.16;69.47
17785;BME280;9016;53.582;10.062;2024-01-30T12:32:58;102362.41;;;12.21;69.14
17785;BME280;9016;53.582;10.062;2024-01-30T12:35:26;102360.72;;;12.18;69.37
17785;BME280;9016;53.582;10.062;2024-01-30T12:37:58;102362.59;;;12.16;69.51
17785;BME280;9016;53.582;10.062;2024-01-30T12:40:27;102362.06;;;12.08;69.86
17785;BME280;9016;53.582;10.062;2024-01-30T12:42:56;102364.03;;;12.03;69.62
17785;BME280;9016;53.582;10.062;2024-01-30T12:45:25;102368.19;;;12.10;70.49
17785;BME280;9016;53.582;10.062;2024-01-30T12:47:54;102361.53;;;12.20;70.25
17785;BME280;9016;53.582;10.062;2024-01-30T12:50:22;102358.16;;;12.37;69.85
17785;BME280;9016;53.582;10.062;2024-01-30T12:52:50;102369.72;;;12.37;69.78
17785;BME280;9016;53.582;10.062;2024-01-30T12:55:19;102367.25;;;12.33;69.60
17785;BME280;9016;53.582;10.062;2024-01-30T12:57:47;102363.25;;;12.21;69.95
17785;BME280;9016;53.582;10.062;2024-01-30T13:00:15;102362.06;;;12.08;70.88
17785;BME280;9016;53.582;10.062;2024-01-30T13:02:44;102360.72;;;12.18;70.67
17785;BME280;9016;53.582;10.062;2024-01-30T13:05:14;102364.72;;;12.30;70.65